createdAt,value
2023-01-08T00:01:29.179Z,-12.65
2023-01-08T00:04:51.005Z,-12.66
2023-01-08T00:08:12.838Z,-12.68
2023-01-08T00:11:34.658Z,-12.72
2023-01-08T00:14:57.823Z,-12.63
2023-01-08T00:18:20.284Z,-12.61
2023-01-08T00:21:42.077Z,-12.61
2023-01-08T00:25:03.814Z,-12.57
2023-01-08T00:28:25.531Z,-12.56
2023-01-08T00:31:48.698Z,-12.58
2023-01-08T00:35:10.711Z,-12.52
2023-01-08T00:38:32.404Z,-12.52
2023-01-08T00:41:54.247Z,-12.53
2023-01-08T00:45:16.414Z,-12.53
2023-01-08T00:48:39.786Z,-12.61
2023-01-08T00:52:01.919Z,-12.64
2023-01-08T00:55:23.722Z,-12.70
2023-01-08T00:58:45.277Z,-12.80
2023-01-08T01:02:07.534Z,-12.84
2023-01-08T01:05:30.882Z,-12.93
2023-01-08T01:08:53.293Z,-12.97
2023-01-08T01:12:15.104Z,-13.03
2023-01-08T01:15:37.034Z,-13.08
2023-01-08T01:18:58.955Z,-13.14
2023-01-08T01:22:22.338Z,-13.19
2023-01-08T01:25:45.817Z,-13.47
2023-01-08T01:29:07.742Z,-13.33
2023-01-08T01:32:29.491Z,-13.38
2023-01-08T01:36:01.065Z,-13.41
2023-01-08T01:39:24.450Z,-13.45
2023-01-08T01:42:46.453Z,-13.60
2023-01-08T01:46:28.251Z,-13.50
2023-01-08T01:49:59.967Z,-13.49
2023-01-08T01:53:25.963Z,-13.62
2023-01-08T01:56:49.886Z,-13.49
2023-01-08T02:00:12.764Z,-13.59
2023-01-08T02:03:37.332Z,-13.58
2023-01-08T02:07:07.368Z,-13.56
2023-01-08T02:10:36.917Z,-13.58
2023-01-08T02:14:08.119Z,-13.62
2023-01-08T02:17:37.361Z,-13.79
2023-01-08T02:21:05.046Z,-13.60
2023-01-08T02:24:39.870Z,-13.59
2023-01-08T02:28:06.234Z,-13.60
2023-01-08T02:31:30.280Z,-13.59
2023-01-08T02:34:52.056Z,-13.65
2023-01-08T02:38:17.347Z,-13.61
2023-01-08T02:41:49.449Z,-13.64
2023-01-08T02:45:24.297Z,-13.62
2023-01-08T02:48:49.900Z,-13.65
2023-01-08T02:52:14.746Z,-13.58
2023-01-08T02:55:39.087Z,-13.67
2023-01-08T02:59:03.186Z,-13.62
2023-01-08T03:02:27.422Z,-13.49
2023-01-08T03:05:52.988Z,-13.48
2023-01-08T03:09:15.806Z,-13.48
2023-01-08T03:12:47.264Z,-13.46
2023-01-08T03:16:12.787Z,-13.36
2023-01-08T03:19:40.833Z,-13.30
2023-01-08T03:23:07.400Z,-13.26
2023-01-08T03:26:30.615Z,-13.23
2023-01-08T03:29:56.064Z,-13.18
2023-01-08T03:33:19.242Z,-13.18
2023-01-08T03:36:46.603Z,-13.07
2023-01-08T03:40:14.087Z,-13.02
2023-01-08T03:43:36.058Z,-13.06
2023-01-08T03:46:59.082Z,-12.98
2023-01-08T03:50:25.147Z,-13.05
2023-01-08T03:53:49.770Z,-12.96
2023-01-08T03:57:11.767Z,-12.94
2023-01-08T04:00:33.792Z,-12.89
2023-01-08T04:03:55.649Z,-12.85
2023-01-08T04:07:17.818Z,-12.85
2023-01-08T04:10:41.176Z,-12.82
2023-01-08T04:14:03.728Z,-12.80
2023-01-08T04:17:25.504Z,-12.84
2023-01-08T04:20:47.959Z,-12.77
2023-01-08T04:24:10.151Z,-12.74
2023-01-08T04:27:33.364Z,-12.72
2023-01-08T04:30:55.440Z,-12.71
2023-01-08T04:34:17.336Z,-12.73
2023-01-08T04:37:39.036Z,-12.69
2023-01-08T04:41:01.721Z,-12.66
2023-01-08T04:44:25.036Z,-12.64
2023-01-08T04:47:47.162Z,-12.63
2023-01-08T04:51:09.044Z,-12.62
2023-01-08T04:54:30.938Z,-12.63
2023-01-08T04:57:52.957Z,-12.61
2023-01-08T05:01:21.572Z,-12.62
2023-01-08T05:04:43.165Z,-12.62
2023-01-08T05:08:05.334Z,-12.63
2023-01-08T05:11:27.504Z,-12.61
2023-01-08T05:14:49.288Z,-12.61
2023-01-08T05:18:12.770Z,-12.66
2023-01-08T05:21:34.775Z,-12.55
2023-01-08T05:24:56.621Z,-12.55
2023-01-08T05:28:18.306Z,-12.56
2023-01-08T05:31:40.064Z,-12.48
2023-01-08T05:35:03.195Z,-12.48
2023-01-08T05:38:24.963Z,-12.45
2023-01-08T05:41:46.791Z,-12.37
2023-01-08T05:45:09.852Z,-12.39
2023-01-08T05:48:33.609Z,-12.30
2023-01-08T05:51:57.266Z,-12.31
2023-01-08T05:55:19.435Z,-12.28
2023-01-08T05:58:41.330Z,-12.20
2023-01-08T06:02:02.998Z,-12.21
2023-01-08T06:05:24.754Z,-12.25
2023-01-08T06:08:47.926Z,-12.13
2023-01-08T06:12:09.986Z,-12.11
2023-01-08T06:15:32.017Z,-12.08
2023-01-08T06:18:53.956Z,-12.07
2023-01-08T06:22:15.667Z,-12.06
2023-01-08T06:25:38.986Z,-12.06
2023-01-08T06:29:00.962Z,-11.94
2023-01-08T06:32:22.925Z,-11.93
2023-01-08T06:35:44.882Z,-11.86
2023-01-08T06:39:07.194Z,-11.85
2023-01-08T06:42:30.518Z,-11.81
2023-01-08T06:45:58.105Z,-11.81
2023-01-08T06:49:20.689Z,-11.76
2023-01-08T06:52:42.607Z,-11.71
2023-01-08T06:56:05.139Z,-11.72
2023-01-08T06:59:30.107Z,-11.62
2023-01-08T07:02:53.090Z,-11.59
2023-01-08T07:06:17.343Z,-11.52
2023-01-08T07:09:39.087Z,-11.49
2023-01-08T07:13:00.802Z,-11.47
2023-01-08T07:16:24.365Z,-11.42
2023-01-08T07:19:46.311Z,-11.41
2023-01-08T07:23:11.520Z,-11.42
2023-01-08T07:26:33.652Z,-11.36
2023-01-08T07:29:56.286Z,-11.35
2023-01-08T07:33:19.230Z,-11.31
2023-01-08T07:36:41.136Z,-11.27
2023-01-08T07:40:03.216Z,-11.25
2023-01-08T07:43:25.375Z,-11.30
2023-01-08T07:46:47.364Z,-11.17
2023-01-08T07:50:11.217Z,-11.15
2023-01-08T07:53:33.082Z,-11.14
2023-01-08T07:56:55.630Z,-11.12
2023-01-08T08:00:17.998Z,-11.07
2023-01-08T08:03:39.948Z,-11.10
2023-01-08T08:07:03.130Z,-11.04
2023-01-08T08:10:25.262Z,-10.99
2023-01-08T08:13:47.651Z,-11.01
2023-01-08T08:17:09.209Z,-10.96
2023-01-08T08:20:31.394Z,-10.92
2023-01-08T08:23:56.722Z,-10.89
2023-01-08T08:27:18.740Z,-10.81
2023-01-08T08:30:42.702Z,-10.80
2023-01-08T08:34:04.709Z,-10.76
2023-01-08T08:37:26.355Z,-10.81
2023-01-08T08:40:49.695Z,-10.84
2023-01-08T08:44:11.959Z,-10.70
2023-01-08T08:47:33.910Z,-10.65
2023-01-08T08:50:55.705Z,-10.65
2023-01-08T08:54:17.609Z,-10.65
2023-01-08T08:57:41.116Z,-10.66
2023-01-08T09:01:04.004Z,-10.67
2023-01-08T09:04:26.220Z,-10.59
2023-01-08T09:07:47.935Z,-10.58
2023-01-08T09:11:10.047Z,-10.53
2023-01-08T09:14:33.292Z,-10.37
2023-01-08T09:17:55.922Z,-10.42
2023-01-08T09:21:17.977Z,-10.29
2023-01-08T09:24:39.930Z,-10.24
2023-01-08T09:28:02.065Z,-10.24
2023-01-08T09:31:25.501Z,-10.17
2023-01-08T09:34:47.462Z,-10.11
2023-01-08T09:38:09.873Z,-10.12
2023-01-08T09:41:35.342Z,-10.04
2023-01-08T09:44:59.542Z,-10.03
2023-01-08T09:48:27.127Z,-10.03
2023-01-08T09:51:49.308Z,-10.00
2023-01-08T09:55:15.404Z,-9.99
2023-01-08T09:58:41.217Z,-9.97
2023-01-08T10:02:03.551Z,-9.89
2023-01-08T10:05:28.366Z,-9.87
2023-01-08T10:08:51.791Z,-9.87
2023-01-08T10:12:14.773Z,-9.92
2023-01-08T10:15:36.766Z,-9.78
2023-01-08T10:18:58.859Z,-9.75
2023-01-08T10:22:23.873Z,-9.79
2023-01-08T10:25:51.951Z,-9.80
2023-01-08T10:29:16.209Z,-9.96
2023-01-08T10:32:38.629Z,-9.76
2023-01-08T10:36:04.062Z,-9.83
2023-01-08T10:39:29.875Z,-9.74
2023-01-08T10:42:52.601Z,-9.66
2023-01-08T10:46:21.754Z,-9.69
2023-01-08T10:49:46.585Z,-9.70
2023-01-08T10:53:24.785Z,-9.60
2023-01-08T10:56:47.948Z,-9.58
2023-01-08T11:00:24.598Z,-9.66
2023-01-08T11:03:51.207Z,-9.54
2023-01-08T11:07:21.570Z,-9.47
2023-01-08T11:10:43.868Z,-9.42
2023-01-08T11:14:16.958Z,-9.47
2023-01-08T11:17:38.818Z,-9.37
2023-01-08T11:21:10.932Z,-9.33
2023-01-08T11:24:35.715Z,-9.27
2023-01-08T11:28:00.661Z,-9.23
2023-01-08T11:31:33.887Z,-9.22
2023-01-08T11:35:00.750Z,-9.29
2023-01-08T11:38:22.609Z,-9.22
2023-01-08T11:42:03.380Z,-9.27
2023-01-08T11:45:33.710Z,-9.23
2023-01-08T11:49:21.608Z,-9.26
2023-01-08T11:53:02.244Z,-9.19
2023-01-08T11:56:38.585Z,-9.24
2023-01-08T12:00:16.808Z,-9.22
2023-01-08T12:03:43.696Z,-9.11
2023-01-08T12:07:13.643Z,-9.15
2023-01-08T12:10:46.887Z,-9.18
2023-01-08T12:14:27.704Z,-9.12
2023-01-08T12:18:06.195Z,-9.14
2023-01-08T12:21:33.354Z,-9.06
2023-01-08T12:25:37.062Z,-9.03
2023-01-08T12:29:28.904Z,-9.04
2023-01-08T12:32:55.418Z,-9.01
2023-01-08T12:36:31.476Z,-9.01
2023-01-08T12:40:01.212Z,-9.00
2023-01-08T12:43:29.818Z,-8.99
2023-01-08T12:46:54.578Z,-9.00
2023-01-08T12:50:28.674Z,-8.96
2023-01-08T12:53:59.370Z,-9.00
2023-01-08T12:57:29.909Z,-8.97
2023-01-08T13:04:24.158Z,-8.90
2023-01-08T13:07:48.032Z,-8.97
2023-01-08T13:11:10.142Z,-8.91
2023-01-08T13:14:42.803Z,-8.93
2023-01-08T13:18:17.502Z,-8.92
2023-01-08T13:21:42.909Z,-8.91
2023-01-08T13:25:28.045Z,-8.87
2023-01-08T13:28:50.399Z,-8.88
2023-01-08T13:32:38.127Z,-8.84
2023-01-08T13:36:34.338Z,-8.82
2023-01-08T13:39:56.219Z,-8.82
2023-01-08T13:43:21.766Z,-8.81
2023-01-08T13:46:44.384Z,-8.78
2023-01-08T13:50:15.753Z,-8.81
2023-01-08T13:53:39.085Z,-8.79
2023-01-08T13:57:07.160Z,-8.73
2023-01-08T14:00:32.236Z,-8.71
2023-01-08T14:03:54.001Z,-8.66
2023-01-08T14:07:16.717Z,-8.65
2023-01-08T14:10:39.693Z,-8.62
2023-01-08T14:14:01.585Z,-8.65
2023-01-08T14:17:28.400Z,-8.62
2023-01-08T14:20:52.650Z,-8.62
2023-01-08T14:24:17.784Z,-8.60
2023-01-08T14:27:41.363Z,-8.61
2023-01-08T14:31:03.447Z,-8.59
2023-01-08T14:34:28.664Z,-8.56
2023-01-08T14:37:50.617Z,-8.59
2023-01-08T14:41:14.974Z,-8.54
2023-01-08T14:44:42.246Z,-8.54
2023-01-08T14:48:15.019Z,-8.48
2023-01-08T14:51:36.776Z,-8.50
2023-01-08T14:55:01.480Z,-8.46
2023-01-08T14:58:26.045Z,-8.46
2023-01-08T15:01:55.814Z,-8.46
2023-01-08T15:05:20.736Z,-8.49
2023-01-08T15:08:44.223Z,-8.40
2023-01-08T15:12:08.705Z,-8.34
2023-01-08T15:15:31.111Z,-8.31
2023-01-08T15:19:02.881Z,-8.30
2023-01-08T15:22:27.390Z,-8.30
2023-01-08T15:25:49.652Z,-8.23
2023-01-08T15:29:20.131Z,-8.21
2023-01-08T15:32:42.181Z,-8.20
2023-01-08T15:36:07.470Z,-8.19
2023-01-08T15:39:29.431Z,-8.22
2023-01-08T15:43:08.448Z,-8.13
2023-01-08T15:46:30.702Z,-8.11
2023-01-08T15:49:54.237Z,-8.09
2023-01-08T15:53:23.453Z,-8.07
2023-01-08T15:56:45.615Z,-8.01
2023-01-08T16:00:08.663Z,-8.02
2023-01-08T16:03:31.005Z,-7.96
2023-01-08T16:06:53.084Z,-7.94
2023-01-08T16:10:17.316Z,-7.92
2023-01-08T16:13:39.344Z,-7.89
2023-01-08T16:17:02.100Z,-7.89
2023-01-08T16:20:23.921Z,-7.84
2023-01-08T16:23:46.100Z,-7.79
2023-01-08T16:27:10.098Z,-7.81
2023-01-08T16:30:31.851Z,-7.76
2023-01-08T16:33:53.779Z,-7.72
2023-01-08T16:37:15.988Z,-7.71
2023-01-08T16:40:38.173Z,-7.69
2023-01-08T16:44:01.617Z,-7.66
2023-01-08T16:47:23.796Z,-7.65
2023-01-08T16:50:46.522Z,-7.65
2023-01-08T16:54:09.149Z,-7.64
2023-01-08T16:57:30.929Z,-7.58
2023-01-08T17:00:54.369Z,-7.54
2023-01-08T17:04:16.348Z,-7.52
2023-01-08T17:07:38.215Z,-7.50
2023-01-08T17:10:59.931Z,-7.48
2023-01-08T17:14:21.471Z,-7.46
2023-01-08T17:17:44.706Z,-7.49
2023-01-08T17:21:07.010Z,-7.40
2023-01-08T17:24:29.077Z,-7.39
2023-01-08T17:27:52.707Z,-7.38
2023-01-08T17:31:18.468Z,-7.32
2023-01-08T17:34:41.695Z,-7.32
2023-01-08T17:38:03.568Z,-7.33
2023-01-08T17:41:42.590Z,-7.45
2023-01-08T17:45:06.391Z,-7.27
2023-01-08T17:48:28.308Z,-7.26
2023-01-08T17:52:01.596Z,-7.26
2023-01-08T17:55:23.391Z,-7.24
2023-01-08T17:58:45.967Z,-7.23
2023-01-08T18:02:08.296Z,-7.15
2023-01-08T18:05:29.998Z,-7.12
2023-01-08T18:08:53.274Z,-7.11
2023-01-08T18:12:15.273Z,-7.19
2023-01-08T18:15:37.363Z,-7.17
2023-01-08T18:18:59.473Z,-7.11
2023-01-08T18:22:21.217Z,-7.12
2023-01-08T18:25:44.278Z,-7.06
2023-01-08T18:29:06.375Z,-7.04
2023-01-08T18:32:28.511Z,-7.03
2023-01-08T18:35:50.694Z,-7.04
2023-01-08T18:39:13.167Z,-7.04
2023-01-08T18:42:36.538Z,-7.05
2023-01-08T18:46:00.990Z,-7.02
2023-01-08T18:49:23.617Z,-7.00
2023-01-08T18:52:45.535Z,-6.96
2023-01-08T18:56:08.146Z,-6.94
2023-01-08T18:59:31.337Z,-6.93
2023-01-08T19:02:54.128Z,-6.94
2023-01-08T19:06:17.530Z,-6.87
2023-01-08T19:09:39.959Z,-6.88
2023-01-08T19:13:01.851Z,-6.87
2023-01-08T19:16:25.362Z,-6.92
2023-01-08T19:19:47.237Z,-6.88
2023-01-08T19:23:08.930Z,-6.88
2023-01-08T19:26:30.983Z,-6.84
2023-01-08T19:29:53.652Z,-6.89
2023-01-08T19:33:17.238Z,-6.82
2023-01-08T19:36:39.478Z,-6.85
2023-01-08T19:40:03.157Z,-6.83
2023-01-08T19:43:43.389Z,-6.80
2023-01-08T19:47:19.685Z,-6.76
2023-01-08T19:50:43.775Z,-6.74
2023-01-08T19:54:05.719Z,-6.77
2023-01-08T19:57:28.237Z,-6.74
2023-01-08T20:00:50.622Z,-6.72
2023-01-08T20:04:13.176Z,-6.68
2023-01-08T20:07:36.681Z,-6.68
2023-01-08T20:10:58.519Z,-6.65
2023-01-08T20:14:21.200Z,-6.63
2023-01-08T20:17:43.442Z,-6.66
2023-01-08T20:21:07.233Z,-6.64
2023-01-08T20:24:30.981Z,-6.64
2023-01-08T20:27:52.763Z,-6.66
2023-01-08T20:31:17.022Z,-6.65
2023-01-08T20:34:38.767Z,-6.69
2023-01-08T20:38:00.565Z,-6.69
2023-01-08T20:41:26.467Z,-6.72
2023-01-08T20:44:48.420Z,-6.75
2023-01-08T20:48:10.766Z,-6.78
2023-01-08T20:51:33.212Z,-6.80
2023-01-08T20:54:54.977Z,-6.80
2023-01-08T20:58:18.626Z,-6.82
2023-01-08T21:01:40.624Z,-6.85
2023-01-08T21:05:02.545Z,-6.86
2023-01-08T21:08:24.287Z,-6.87
2023-01-08T21:11:46.632Z,-6.89
2023-01-08T21:15:11.798Z,-6.92
2023-01-08T21:18:33.272Z,-6.92
2023-01-08T21:21:55.449Z,-6.96
2023-01-08T21:25:19.123Z,-6.97
2023-01-08T21:28:42.268Z,-6.99
2023-01-08T21:32:07.846Z,-6.99
2023-01-08T21:35:29.518Z,-7.02
2023-01-08T21:38:51.813Z,-7.03
2023-01-08T21:42:31.019Z,-7.02
2023-01-08T21:45:56.046Z,-7.01
2023-01-08T21:49:19.341Z,-7.04
2023-01-08T21:52:58.596Z,-7.04
2023-01-08T21:56:20.671Z,-7.05
2023-01-08T21:59:42.390Z,-7.04
2023-01-08T22:03:04.524Z,-7.01
2023-01-08T22:06:27.679Z,-7.04
2023-01-08T22:09:49.837Z,-7.03
2023-01-08T22:13:11.659Z,-7.08
2023-01-08T22:16:33.989Z,-7.07
2023-01-08T22:19:55.948Z,-7.06
2023-01-08T22:23:19.490Z,-7.09
2023-01-08T22:26:41.514Z,-7.10
2023-01-08T22:30:03.110Z,-7.09
2023-01-08T22:33:24.974Z,-7.12
2023-01-08T22:36:47.273Z,-7.10
2023-01-08T22:40:12.001Z,-7.12
2023-01-08T22:43:33.816Z,-7.19
2023-01-08T22:46:56.684Z,-7.18
2023-01-08T22:50:18.748Z,-7.23
2023-01-08T22:53:40.428Z,-7.23
2023-01-08T22:57:03.522Z,-7.32
2023-01-08T23:00:25.587Z,-7.26
2023-01-08T23:03:49.642Z,-7.26
2023-01-08T23:07:11.614Z,-7.26
2023-01-08T23:10:33.669Z,-7.28
2023-01-08T23:13:57.466Z,-7.30
2023-01-08T23:17:22.426Z,-7.27
2023-01-08T23:20:44.024Z,-7.29
2023-01-08T23:24:07.425Z,-7.34
2023-01-08T23:27:31.161Z,-7.29
2023-01-08T23:30:54.232Z,-7.28
2023-01-08T23:34:16.276Z,-7.29
2023-01-08T23:37:38.033Z,-7.29
2023-01-08T23:41:00.170Z,-7.25
2023-01-08T23:44:22.220Z,-7.24
2023-01-08T23:47:45.457Z,-7.31
2023-01-08T23:51:07.754Z,-7.27
2023-01-08T23:54:29.814Z,-7.21
2023-01-08T23:57:52.024Z,-7.18
